Terminal Aerodrome Forecast
Issued by NWS

Home | Current Version | Previous Version | Text Only | Print | Product List | Glossary On
Versions: 1 2 3 4 5 6 7 8 9 10 11 12 13 14 15 16 17 18 19 20 21 22 23 24
000
FTUS46 KMFR 221317 AAA
TAFLMT
TAF AMD
KLMT 221317Z 2213/2312 29007KT 3SM -SHSN SCT010 BKN020 OVC040
     FM221700 25005KT 4SM -SHSN BKN020 OVC035
     FM222000 31008KT 4SM -SHSN BKN020 BKN060
     FM230300 31006KT 5SM -SHSN BKN030 OVC050=

USA.gov is the U.S. government's official web portal to all federal, state and local government web resources and services.